Wimbledon, North Dakota
Current Conditions -  °F | °C
As of 11:56 AM on Tuesday 21 Oct 2014 (Local Time) from KJMS Reporting Station
Clear Clear  
Wind Chill: 16°   Ceiling: Unl
Heat Index: 16°   Visibility: 10mi
Dew Point:   Wind: 22mph
Humidity: 46%   Direction: 160°SSE
Pressure: 29.86"   Gusts: 31mph
Location:  47.17°N, 98.46°W
Report Text: KJMS 211656Z AUTO 16019G27KT 10SM CLR 16/04 A2986 RMK AO2 PK WND 17027/1627 RAB05E32 SLP116 P0000 T01610044
Loading
Personal Weather Stations






























Interactive Weather Map
Tropical Storm Tracking
New forecast layout! Learn more

10-Day Weather Forecast

Advertisements
Track Severe Weather on mobile